Metar Report
Metar
METAR KVGC 290656Z AUTO 00000KT 10SM OVC075 16/07 A3002 A02 1003
METAR KVGC 290556Z AUTO 00000KT 10SM OVC090 15/08 A3001 A02 1002
METAR KVGC 290456Z AUTO 00000KT 10SM OVC110 15/09 A3003 A02 1001
METAR KVGC 290356Z AUTO 00000KT 10SM OVC110 16/09 A3003 A02 1000
METAR KVGC 290256Z AUTO 00000KT 10SM OVC100 15/11 A3002 A02 999
METAR KVGC 290156Z AUTO 00000KT 10SM OVC110 15/11 A3003 A02 998
METAR KVGC 290056Z AUTO 00000KT 10SM BKN120 15/11 A3002 A02 997
METAR KVGC 282356Z AUTO 00000KT 10SM SCT120 18/11 A3002 A02 996
METAR KVGC 282256Z AUTO 00000KT 10SM CLR 22/08 A3002 A02 995
METAR KVGC 282156Z AUTO 00000KT 10SM CLR 22/07 A3000 A02 994
METAR KVGC 282056Z AUTO 26004KT 10SM CLR 23/04 A3000 A02 993
METAR KVGC 281956Z AUTO 25005KT 10SM CLR 23/03 A3000 A02 992
METAR KVGC 281856Z AUTO 22007KT 190V290 10SM CLR 22/03 A3001 A02 991
METAR KVGC 281756Z AUTO 23008KT 10SM CLR 21/04 A3001 A02 990
METAR KVGC 281656Z AUTO 00000KT 10SM CLR 19/08 A3001 A02 989
METAR KVGC 281556Z AUTO 35004KT 10SM CLR 18/08 A3003 A02 988
METAR KVGC 281456Z AUTO 32005KT 10SM CLR 17/08 A3002 A02 987
METAR KVGC 281356Z AUTO 31005KT 10SM SCT032 16/08 A3002 A02 986
METAR KVGC 281256Z AUTO 00000KT 10SM CLR 14/09 A3001 A02 985
METAR KVGC 281156Z AUTO 00000KT 10SM SCT038 13/08 A2999 A02 984
METAR KVGC 281056Z AUTO 34004KT 10SM OVC026 12/08 A2998 A02 983
METAR KVGC 280956Z AUTO 34005KT 10SM BKN021 OVC040 13/09 A2993 A02 982
METAR KVGC 280856Z AUTO 00000KT 10SM SCT013 BKN047 OVC050 14/12 A2990 A02 P0012 981
METAR KVGC 280756Z AUTO 36004KT 10SM BKN007 OVC015 16/16 A2987 A02 980
METAR KVGC 280656Z AUTO 00000KT 10SM SCT023 BKN030 OVC095 16/14 A2984 A02 979
METAR KVGC 280556Z AUTO 16006KT 7SM SCT080 OVC095 17/14 A2981 A02 P0010 978
METAR KVGC 280456Z AUTO 16006KT 7SM SCT026 BKN075 OVC095 18/14 A2980 A02 P0003 977
METAR KVGC 280356Z AUTO 18009G16KT 10SM BKN095 BKN120 19/14 A2979 A02 976
METAR KVGC 280256Z AUTO 17013G23KT 10SM CLR 19/14 A2977 A02 975
METAR KVGC 280156Z AUTO 17011G22KT 10SM CLR 20/14 A2976 A02 974
METAR KVGC 280056Z AUTO 17013G18KT 10SM CLR 21/14 A2975 A02 973
METAR KVGC 272356Z AUTO 17009G17KT 10SM CLR 22/14 A2973 A02 972
METAR KVGC 272256Z AUTO 16012G15KT 10SM CLR 23/13 A2972 A02 971
METAR KVGC 272156Z AUTO 16011G17KT 10SM CLR 24/13 A2972 A02 970
METAR KVGC 272056Z AUTO 17008KT 10SM CLR 26/13 A2973 A02 969
METAR KVGC 271956Z AUTO 17012G16KT 10SM CLR 25/14 A2974 A02 968
METAR KVGC 271856Z AUTO 16011G14KT 10SM CLR 24/14 A2976 A02 967
METAR KVGC 271756Z AUTO 20008KT 10SM CLR 23/13 A2978 A02 966
METAR KVGC 271656Z AUTO 15010KT 10SM CLR 22/13 A2982 A02 965
METAR KVGC 271556Z AUTO 18008KT 160V220 10SM CLR 21/13 A2983 A02 964
METAR KVGC 271456Z AUTO 18012G17KT 10SM OVC016 18/12 A2984 A02 963
METAR KVGC 271356Z AUTO 18009KT 10SM OVC012 16/12 A2985 A02 962
METAR KVGC 271256Z AUTO 17009G15KT 10SM OVC010 15/12 A2985 A02 961
METAR KVGC 271156Z AUTO 17012KT 10SM OVC008 14/12 A2984 A02 960
METAR KVGC 271056Z AUTO 17008KT 10SM OVC008 14/12 A2984 A02 959
METAR KVGC 270956Z AUTO 16007KT 10SM OVC008 14/12 A2983 A02 958
METAR KVGC 270856Z AUTO 16008KT 10SM OVC008 14/12 A2982 A02 957
METAR KVGC 270756Z AUTO 18006KT 10SM OVC010 14/12 A2982 A02 956
METAR KVGC 270656Z AUTO 15003KT 10SM CLR 13/11 A2981 A02 955
METAR KVGC 270556Z AUTO 00000KT 10SM CLR 13/11 A2981 A02 954
METAR KVGC 270456Z AUTO 13003KT 10SM CLR 13/11 A2981 A02 953
METAR KVGC 270356Z AUTO 00000KT 10SM CLR 13/11 A2979 A02 952
METAR KVGC 270256Z AUTO 00000KT 10SM CLR 13/11 A2979 A02 951
METAR KVGC 270156Z AUTO 00000KT 10SM CLR 14/12 A2979 A02 950
METAR KVGC 270056Z AUTO 00000KT 10SM CLR 16/12 A2977 A02 949
METAR KVGC 262356Z AUTO 08003KT 10SM CLR 18/12 A2976 A02 948
METAR KVGC 262256Z AUTO 05005KT 10SM CLR 21/13 A2974 A02 947
METAR KVGC 262156Z AUTO 01008KT 10SM CLR 22/13 A2974 A02 946
METAR KVGC 262056Z AUTO 03004KT 10SM CLR 23/13 A2973 A02 945
METAR KVGC 261956Z AUTO 36009KT 10SM CLR 22/13 A2974 A02 944
METAR KVGC 261856Z AUTO 36008KT 10SM SCT033 22/13 A2976 A02 943
METAR KVGC 261756Z AUTO 35008KT 10SM SCT031 21/13 A2978 A02 942
METAR KVGC 261656Z AUTO 35006KT 10SM OVC075 19/13 A2980 A02 941
METAR KVGC 261556Z AUTO 00000KT 10SM OVC048 17/12 A2981 A02 940
METAR KVGC 261456Z AUTO 00000KT 10SM SCT110 15/10 A2982 A02 939
METAR KVGC 261356Z AUTO 00000KT 10SM OVC015 13/09 A2983 A02 938
METAR KVGC 261256Z AUTO 00000KT 10SM OVC013 12/09 A2984 A02 937
METAR KVGC 261156Z AUTO 00000KT 10SM SCT011 OVC070 11/08 A2983 A02 936
METAR KVGC 261056Z AUTO 00000KT 10SM BKN013 BKN090 09/08 A2985 A02 935
METAR KVGC 260956Z AUTO 00000KT 10SM OVC013 09/08 A2984 A02 934
METAR KVGC 260856Z AUTO 00000KT 10SM OVC013 10/08 A2985 A02 933
METAR KVGC 260756Z AUTO 15003KT 10SM BKN013 BKN120 10/08 A2984 A02 932
METAR KVGC 260656Z AUTO 15006KT 10SM SCT013 BKN110 10/08 A2985 A02 931
METAR KVGC 260556Z AUTO 14006KT 10SM BKN015 OVC030 10/08 A2987 A02 930
METAR KVGC 260456Z AUTO 16005KT 10SM OVC015 10/08 A2990 A02 929
METAR KVGC 260356Z AUTO 13004KT 10SM OVC013 10/08 A2991 A02 P0003 928
METAR KVGC 260256Z AUTO 00000KT 5SM BKN012 OVC038 10/08 A2994 A02 P0004 927
METAR KVGC 260156Z AUTO 00000KT 10SM OVC016 11/08 A2997 A02 926
METAR KVGC 260056Z AUTO 11007KT 10SM OVC016 11/07 A2997 A02 925
METAR KVGC 252356Z AUTO 14010KT 10SM OVC018 12/07 A2998 A02 924
METAR KVGC 252256Z AUTO 13008G15KT 10SM OVC018 12/07 A2998 A02 923
METAR KVGC 252156Z AUTO 12010KT 10SM OVC020 12/07 A3000 A02 922
METAR KVGC 252056Z AUTO 12006KT 10SM OVC022 13/08 A3001 A02 921
METAR KVGC 251956Z AUTO 11010G15KT 10SM OVC022 13/08 A3003 A02 920
METAR KVGC 251856Z AUTO 15010G14KT 10SM OVC022 13/08 A3005 A02 919
METAR KVGC 251756Z AUTO 14011G17KT 10SM BKN022 OVC034 13/08 A3007 A02 918
METAR KVGC 251656Z AUTO 14010KT 10SM OVC020 11/07 A3009 A02 917
METAR KVGC 251556Z AUTO 14012G20KT 10SM SCT023 BKN028 OVC039 11/06 A3011 A02 916
METAR KVGC 251456Z AUTO 14013G17KT 10SM OVC032 11/06 A3012 A02 915
METAR KVGC 251356Z AUTO 13008KT 10SM BKN036 BKN050 OVC070 09/05 A3012 A02 P0001 914
METAR KVGC 251256Z AUTO 14008KT 10SM OVC040 09/04 A3012 A02 913
METAR KVGC 251156Z AUTO 15007KT 10SM BKN042 OVC050 11/03 A3012 A02 912
METAR KVGC 251056Z AUTO 13006KT 10SM SCT046 BKN055 OVC075 11/03 A3009 A02 911
METAR KVGC 250956Z AUTO 00000KT 10SM SCT046 OVC090 09/05 A3007 A02 910
METAR KVGC 250856Z AUTO 12003KT 10SM OVC100 11/03 A3006 A02 909
METAR KVGC 250756Z AUTO 15003KT 10SM OVC090 11/03 A3007 A02 908
METAR KVGC 250656Z AUTO 00000KT 10SM OVC090 09/05 A3007 A02 907
METAR KVGC 250556Z AUTO 00000KT 10SM OVC100 08/06 A3009 A02 906
METAR KVGC 250456Z AUTO 00000KT 10SM CLR 07/04 A3011 A02 905
METAR KVGC 250356Z AUTO 00000KT 10SM CLR 08/04 A3011 A02 904
METAR KVGC 250256Z AUTO 13004KT 10SM CLR 11/03 A3011 A02 903
METAR KVGC 250156Z AUTO 16004KT 10SM CLR 13/02 A3011 A02 902
METAR KVGC 250056Z AUTO 00000KT 10SM CLR 13/06 A3008 A02 901
METAR KVGC 242356Z AUTO 09003KT 10SM CLR 17/01 A3007 A02 900
METAR KVGC 242256Z AUTO 08005KT 10SM CLR 19/01 A3006 A02 899
METAR KVGC 242156Z AUTO 06008KT 10SM CLR 21/01 A3007 A02 898
METAR KVGC 242056Z AUTO 03008KT 10SM CLR 21/02 A3007 A02 897
METAR KVGC 241956Z AUTO 36010KT 10SM CLR 21/02 A3009 A02 896
METAR KVGC 241856Z AUTO 01006KT 10SM CLR 21/02 A3011 A02 895
METAR KVGC 241756Z AUTO 35008KT 10SM CLR 19/02 A3012 A02 894
METAR KVGC 241656Z AUTO 34006KT 10SM CLR 19/02 A3014 A02 893
METAR KVGC 241556Z AUTO 36005KT 10SM CLR 17/03 A3016 A02 892
METAR KVGC 241456Z AUTO 03003KT 10SM CLR 16/01 A3016 A02 891
METAR KVGC 241356Z AUTO 36003KT 10SM CLR 13/04 A3016 A02 890
METAR KVGC 241256Z AUTO 00000KT 10SM CLR 09/03 A3016 A02 889
METAR KVGC 241156Z AUTO 00000KT 10SM CLR 05/02 A3014 A02 888
METAR KVGC 241056Z AUTO 00000KT 10SM CLR 02/01 A3013 A02 887
METAR KVGC 240956Z AUTO 00000KT 10SM CLR 01/01 A3012 A02 886
METAR KVGC 240856Z AUTO 14003KT 10SM CLR 01/01 A3011 A02 885
METAR KVGC 240756Z AUTO 00000KT 10SM CLR 02/01 A3010 A02 884
METAR KVGC 240656Z AUTO 00000KT 10SM CLR 03/02 A3009 A02 883